Terminal Aerodrome Forecast
Issued by NWS

Home | Current Version | Previous Version | Text Only | Print | Product List | Glossary On
Versions: 1 2 3 4 5 6 7 8 9 10 11 12 13 14
000
FTUS45 KABQ 251732
TAFSAF
TAF
KSAF 251732Z 2518/2618 27012G22KT P6SM SCT050
     FM252000 27015G24KT P6SM VCTS BKN050CB
     FM260200 31009KT P6SM BKN050
     FM260600 36007KT P6SM FEW050=

USA.gov is the U.S. government's official web portal to all federal, state and local government web resources and services.